createdAt,value
2018-08-09T00:00:40.406Z,98.14
2018-08-09T00:01:40.130Z,98.53
2018-08-09T00:02:40.331Z,98.43
2018-08-09T00:04:01.765Z,98.14
2018-08-09T00:05:46.027Z,98.10
2018-08-09T00:06:46.904Z,98.00
2018-08-09T00:08:08.549Z,97.42
2018-08-09T00:09:09.412Z,97.61
2018-08-09T00:10:09.569Z,97.81
2018-08-09T00:11:08.616Z,98.00
2018-08-09T00:12:30.741Z,97.71
2018-08-09T00:13:31.802Z,97.52
2018-08-09T00:14:31.396Z,97.86
2018-08-09T00:15:31.489Z,97.95
2018-08-09T00:16:31.880Z,98.05
2018-08-09T00:17:32.107Z,97.71
2018-08-09T00:18:31.678Z,97.33
2018-08-09T00:19:31.563Z,97.52
2018-08-09T00:20:31.096Z,97.23
2018-08-09T00:21:30.783Z,97.04
2018-08-09T00:22:32.684Z,97.23
2018-08-09T00:23:31.723Z,97.23
2018-08-09T00:24:31.413Z,97.42
2018-08-09T00:25:31.605Z,97.42
2018-08-09T00:26:31.383Z,97.23
2018-08-09T00:27:31.414Z,97.71
2018-08-09T00:28:53.052Z,97.90
2018-08-09T00:29:53.576Z,97.71
2018-08-09T00:30:53.347Z,98.28
2018-08-09T00:31:53.082Z,98.33
2018-08-09T00:32:53.822Z,98.24
2018-08-09T00:33:53.736Z,98.05
2018-08-09T00:34:54.784Z,97.71
2018-08-09T00:35:53.760Z,97.66
2018-08-09T00:37:17.321Z,97.76
2018-08-09T00:38:17.189Z,97.76
2018-08-09T00:39:17.443Z,97.76
2018-08-09T00:40:18.084Z,97.66
2018-08-09T00:41:39.739Z,97.14
2018-08-09T00:42:40.402Z,97.14
2018-08-09T00:43:40.460Z,96.66
2018-08-09T00:44:40.339Z,96.85
2018-08-09T00:45:40.314Z,96.18
2018-08-09T00:46:40.265Z,96.08
2018-08-09T00:47:40.059Z,96.18
2018-08-09T00:48:39.965Z,96.37
2018-08-09T00:49:39.831Z,95.98
2018-08-09T00:50:39.880Z,96.18
2018-08-09T00:51:39.637Z,96.18
2018-08-09T00:52:39.680Z,95.79
2018-08-09T00:53:39.581Z,95.60
2018-08-09T00:54:40.511Z,95.70
2018-08-09T00:55:40.300Z,95.51
2018-08-09T00:57:01.655Z,95.31
2018-08-09T00:58:02.573Z,95.41
2018-08-09T00:59:45.122Z,95.21
2018-08-09T01:00:45.873Z,95.12
2018-08-09T01:01:45.484Z,95.03
2018-08-09T01:02:45.367Z,94.93
2018-08-09T01:04:07.445Z,95.60
2018-08-09T01:05:08.290Z,96.18
2018-08-09T01:06:07.927Z,96.75
2018-08-09T01:07:07.640Z,97.61
2018-08-09T01:08:08.236Z,97.61
2018-08-09T01:09:07.760Z,98.19
2018-08-09T01:10:07.593Z,98.38
2018-08-09T01:11:08.654Z,99.05
2018-08-09T01:12:08.565Z,98.10
2018-08-09T01:13:31.427Z,96.42
2018-08-09T01:14:32.626Z,96.32
2018-08-09T01:15:55.684Z,95.84
2018-08-09T01:16:56.642Z,96.22
2018-08-09T01:17:56.307Z,96.51
2018-08-09T01:18:56.010Z,96.51
2018-08-09T01:19:55.643Z,96.22
2018-08-09T01:20:56.283Z,96.13
2018-08-09T01:21:56.057Z,95.75
2018-08-09T01:22:55.705Z,95.56
2018-08-09T01:23:56.514Z,95.26
2018-08-09T01:24:56.366Z,95.07
2018-08-09T01:25:56.182Z,95.07
2018-08-09T01:26:56.116Z,95.07
2018-08-09T01:27:55.818Z,94.69
2018-08-09T01:28:56.738Z,94.45
2018-08-09T01:29:56.386Z,94.54
2018-08-09T01:30:57.302Z,94.74
2018-08-09T01:31:56.286Z,94.64
2018-08-09T01:32:56.136Z,94.26
2018-08-09T01:33:56.335Z,94.26
2018-08-09T01:34:56.331Z,94.45
2018-08-09T01:36:40.891Z,94.40
2018-08-09T01:37:41.736Z,94.40
2018-08-09T01:38:41.669Z,95.31
2018-08-09T01:39:41.347Z,95.98
2018-08-09T01:41:02.830Z,96.18
2018-08-09T01:42:25.154Z,95.84
2018-08-09T01:44:07.801Z,95.84
2018-08-09T01:45:29.783Z,95.17
2018-08-09T01:46:30.392Z,95.26
2018-08-09T01:47:30.059Z,95.12
2018-08-09T01:48:30.827Z,95.21
2018-08-09T01:49:30.519Z,94.79
2018-08-09T01:50:30.261Z,94.40
2018-08-09T01:51:30.373Z,94.21
2018-08-09T01:52:29.954Z,94.02
2018-08-09T01:53:30.455Z,93.73
2018-08-09T01:54:30.090Z,93.63
2018-08-09T01:55:29.813Z,93.54
2018-08-09T01:56:30.575Z,93.93
2018-08-09T01:57:30.474Z,93.93
2018-08-09T01:58:30.280Z,93.83
2018-08-09T01:59:29.941Z,93.54
2018-08-09T02:00:29.810Z,92.77
2018-08-09T02:01:30.525Z,92.97
2018-08-09T02:02:29.968Z,92.68
2018-08-09T02:03:30.785Z,92.01
2018-08-09T02:04:30.735Z,92.01
2018-08-09T02:05:52.140Z,92.01
2018-08-09T02:06:53.117Z,91.91
2018-08-09T02:07:52.852Z,92.01
2018-08-09T02:08:52.687Z,92.68
2018-08-09T02:09:52.345Z,93.06
2018-08-09T02:11:39.018Z,93.26
2018-08-09T02:12:39.127Z,93.16
2018-08-09T02:13:39.190Z,93.06
2018-08-09T02:14:39.155Z,93.06
2018-08-09T02:15:38.959Z,92.87
2018-08-09T02:17:00.466Z,92.87
2018-08-09T02:18:00.944Z,92.58
2018-08-09T02:19:00.640Z,92.30
2018-08-09T02:20:01.429Z,92.39
2018-08-09T02:21:01.346Z,92.58
2018-08-09T02:22:00.815Z,92.49
2018-08-09T02:23:23.908Z,92.49
2018-08-09T02:24:24.781Z,92.39
2018-08-09T02:25:24.552Z,92.20
2018-08-09T02:26:24.319Z,91.82
2018-08-09T02:27:46.541Z,91.05
2018-08-09T02:28:47.099Z,91.34
2018-08-09T02:30:08.214Z,91.34
2018-08-09T02:31:08.013Z,91.63
2018-08-09T02:32:08.672Z,91.53
2018-08-09T02:33:08.123Z,91.72
2018-08-09T02:34:08.921Z,90.86
2018-08-09T02:35:29.846Z,90.86
2018-08-09T02:36:30.772Z,90.57
2018-08-09T02:37:30.257Z,90.43
2018-08-09T02:38:29.970Z,90.23
2018-08-09T02:39:30.857Z,89.86
2018-08-09T02:40:30.995Z,89.37
2018-08-09T02:41:30.760Z,89.57
2018-08-09T02:42:30.392Z,89.18
2018-08-09T02:43:30.073Z,88.99
2018-08-09T02:44:31.024Z,89.09
2018-08-09T02:45:30.874Z,88.99
2018-08-09T02:46:30.489Z,89.76
2018-08-09T02:47:51.726Z,90.72
2018-08-09T02:49:13.729Z,88.70
2018-08-09T02:50:58.949Z,89.57
2018-08-09T02:52:21.286Z,89.47
2018-08-09T02:53:21.741Z,89.66
2018-08-09T02:54:21.445Z,89.66
2018-08-09T02:56:08.173Z,89.28
2018-08-09T02:57:07.865Z,89.47
2018-08-09T02:58:08.730Z,89.37
2018-08-09T02:59:08.440Z,88.90
2018-08-09T03:00:08.559Z,88.61
2018-08-09T03:01:08.516Z,87.46
2018-08-09T03:02:08.215Z,87.37
2018-08-09T03:03:08.808Z,87.17
2018-08-09T03:04:08.805Z,87.37
2018-08-09T03:05:08.592Z,87.08
2018-08-09T03:06:08.250Z,87.27
2018-08-09T03:07:08.260Z,87.27
2018-08-09T03:08:08.005Z,87.08
2018-08-09T03:09:08.950Z,87.08
2018-08-09T03:10:09.007Z,86.69
2018-08-09T03:11:08.794Z,86.60
2018-08-09T03:12:08.437Z,86.79
2018-08-09T03:13:08.406Z,86.60
2018-08-09T03:14:08.058Z,86.69
2018-08-09T03:15:07.738Z,86.98
2018-08-09T03:16:08.455Z,87.08
2018-08-09T03:17:08.053Z,87.08
2018-08-09T03:18:08.665Z,87.08
2018-08-09T03:19:29.549Z,87.08
2018-08-09T03:20:30.286Z,86.88
2018-08-09T03:21:29.730Z,86.79
2018-08-09T03:22:30.540Z,86.69
2018-08-09T03:24:15.120Z,86.02
2018-08-09T03:25:16.043Z,85.25
2018-08-09T03:26:15.666Z,85.35
2018-08-09T03:27:15.206Z,84.88
2018-08-09T03:28:39.284Z,84.88
2018-08-09T03:29:39.925Z,84.58
2018-08-09T03:30:39.759Z,84.11
2018-08-09T03:32:25.360Z,84.49
2018-08-09T03:33:26.302Z,84.39
2018-08-09T03:34:47.826Z,84.01
2018-08-09T03:35:48.342Z,84.11
2018-08-09T03:37:09.530Z,85.06
2018-08-09T03:38:31.547Z,85.25
2018-08-09T03:39:53.955Z,85.45
2018-08-09T03:40:54.659Z,85.54
2018-08-09T03:41:54.516Z,85.74
2018-08-09T03:42:54.190Z,86.12
2018-08-09T03:43:54.773Z,86.31
2018-08-09T03:44:54.563Z,86.02
2018-08-09T03:45:54.333Z,86.41
2018-08-09T03:46:54.951Z,86.50
2018-08-09T03:47:54.466Z,85.79
2018-08-09T03:48:54.393Z,86.02
2018-08-09T03:49:54.275Z,86.31
2018-08-09T03:50:53.944Z,85.69
2018-08-09T03:51:54.763Z,85.41
2018-08-09T03:52:54.217Z,85.54
2018-08-09T03:53:54.896Z,85.64
2018-08-09T03:54:54.621Z,85.93
2018-08-09T03:55:54.431Z,85.98
2018-08-09T03:56:53.996Z,85.69
2018-08-09T03:57:55.072Z,84.92
2018-08-09T03:59:16.056Z,84.16
2018-08-09T04:00:16.923Z,84.64
2018-08-09T04:01:16.513Z,85.06
2018-08-09T04:02:16.279Z,85.25
2018-08-09T04:03:17.048Z,85.12
2018-08-09T04:04:38.416Z,85.02
2018-08-09T04:05:39.241Z,84.92
2018-08-09T04:06:39.235Z,84.64
2018-08-09T04:07:39.120Z,84.16
2018-08-09T04:08:39.093Z,83.87
2018-08-09T04:09:38.809Z,83.87
2018-08-09T04:10:38.477Z,83.87
2018-08-09T04:11:39.838Z,83.97
2018-08-09T04:12:38.820Z,83.87
2018-08-09T04:13:38.755Z,83.39
2018-08-09T04:14:38.678Z,82.92
2018-08-09T04:16:02.168Z,82.53
2018-08-09T04:17:03.250Z,82.92
2018-08-09T04:18:02.806Z,83.20
2018-08-09T04:19:02.384Z,82.82
2018-08-09T04:20:03.325Z,82.73
2018-08-09T04:21:27.311Z,83.30
2018-08-09T04:22:28.256Z,83.30
2018-08-09T04:23:28.287Z,83.49
2018-08-09T04:24:28.046Z,83.01
2018-08-09T04:25:28.078Z,83.11
2018-08-09T04:26:28.018Z,83.49
2018-08-09T04:27:27.811Z,83.30
2018-08-09T04:28:27.706Z,83.11
2018-08-09T04:29:27.374Z,83.20
2018-08-09T04:30:27.471Z,83.49
2018-08-09T04:31:27.446Z,83.87
2018-08-09T04:32:48.723Z,84.45
2018-08-09T04:33:49.444Z,84.64
2018-08-09T04:34:49.447Z,84.74
2018-08-09T04:35:49.194Z,84.83
2018-08-09T04:36:48.935Z,84.35
2018-08-09T04:37:50.835Z,84.55
2018-08-09T04:38:48.756Z,84.55
2018-08-09T04:39:49.535Z,84.55
2018-08-09T04:40:49.177Z,84.35
2018-08-09T04:41:49.895Z,84.06
2018-08-09T04:42:48.734Z,84.06
2018-08-09T04:43:49.653Z,84.16
2018-08-09T04:44:49.552Z,84.01
2018-08-09T04:45:48.995Z,84.01
2018-08-09T04:46:48.667Z,83.92
2018-08-09T04:47:49.624Z,83.92
2018-08-09T04:48:49.190Z,84.49
2018-08-09T04:49:49.191Z,85.25
2018-08-09T04:50:49.114Z,85.93
2018-08-09T04:51:48.987Z,86.31
2018-08-09T04:52:48.859Z,86.54
2018-08-09T04:53:48.841Z,87.02
2018-08-09T04:54:48.622Z,87.70
2018-08-09T04:55:49.422Z,87.79
2018-08-09T04:56:49.083Z,88.27
2018-08-09T04:58:32.593Z,88.84
2018-08-09T04:59:56.756Z,89.75
2018-08-09T05:00:56.726Z,89.75
2018-08-09T05:01:57.353Z,89.75
2018-08-09T05:03:18.779Z,89.94
2018-08-09T05:04:19.390Z,90.23
2018-08-09T05:05:19.493Z,90.52
2018-08-09T05:06:19.219Z,90.71
2018-08-09T05:07:19.984Z,91.28
2018-08-09T05:08:41.697Z,91.19
2018-08-09T05:09:42.908Z,91.48
2018-08-09T05:10:42.205Z,91.77
2018-08-09T05:11:42.413Z,91.33
2018-08-09T05:13:06.318Z,91.81
2018-08-09T05:14:07.187Z,91.81
2018-08-09T05:15:05.984Z,91.81
2018-08-09T05:16:28.446Z,92.10
2018-08-09T05:17:29.314Z,92.58
2018-08-09T05:19:12.771Z,93.06
2018-08-09T05:20:12.841Z,92.96
2018-08-09T05:21:12.731Z,93.06
2018-08-09T05:22:34.095Z,93.06
2018-08-09T05:23:35.314Z,93.25
2018-08-09T05:24:58.386Z,93.54
2018-08-09T05:26:19.964Z,93.92
2018-08-09T05:27:20.019Z,93.82
2018-08-09T05:29:30.248Z,93.35
2018-08-09T05:30:29.952Z,93.49
2018-08-09T05:31:30.662Z,93.87
2018-08-09T05:32:30.426Z,94.54
2018-08-09T05:33:30.437Z,95.12
2018-08-09T05:34:30.677Z,95.50
2018-08-09T05:35:30.275Z,95.70
2018-08-09T05:36:30.047Z,95.89
2018-08-09T05:37:29.991Z,96.56
2018-08-09T05:38:30.699Z,96.37
2018-08-09T05:39:30.905Z,96.66
2018-08-09T05:40:30.793Z,96.75
2018-08-09T05:41:30.541Z,96.94
2018-08-09T05:42:30.491Z,97.14
2018-08-09T05:43:30.383Z,97.47
2018-08-09T05:44:30.416Z,97.66
2018-08-09T05:45:34.765Z,97.86
2018-08-09T05:46:41.499Z,97.86
2018-08-09T05:47:30.713Z,97.86
2018-08-09T05:48:30.588Z,97.96
2018-08-09T05:49:30.522Z,98.05
2018-08-09T05:50:30.596Z,98.43
2018-08-09T05:51:30.453Z,98.63
2018-08-09T05:52:53.980Z,98.48
2018-08-09T05:54:18.743Z,98.00
2018-08-09T05:55:20.131Z,99.06
2018-08-09T05:56:19.417Z,98.29
2018-08-09T05:57:19.225Z,98.68
2018-08-09T05:58:19.178Z,99.59
2018-08-09T05:59:19.258Z,99.68
2018-08-09T06:00:40.663Z,99.99
2018-08-09T06:01:41.481Z,99.99
2018-08-09T06:02:41.635Z,99.99
2018-08-09T06:03:40.652Z,99.98
2018-08-09T06:04:41.285Z,99.99
2018-08-09T06:05:41.447Z,99.99
2018-08-09T06:06:41.385Z,99.99
2018-08-09T06:07:41.236Z,99.99
2018-08-09T06:08:41.135Z,99.99
2018-08-09T06:09:41.407Z,99.99
2018-08-09T06:10:41.353Z,99.99
2018-08-09T06:11:41.210Z,99.99
2018-08-09T06:13:25.745Z,99.99
2018-08-09T06:14:25.654Z,99.99
2018-08-09T06:15:47.728Z,99.99
2018-08-09T06:16:47.662Z,99.99
2018-08-09T06:17:48.555Z,99.99
2018-08-09T06:18:47.615Z,99.99
2018-08-09T06:19:48.445Z,99.99
2018-08-09T06:20:48.401Z,99.99
2018-08-09T06:21:48.261Z,99.99
2018-08-09T06:22:48.188Z,99.99
2018-08-09T06:23:48.733Z,99.99
2018-08-09T06:24:47.543Z,99.99
2018-08-09T06:25:48.698Z,99.99
2018-08-09T06:26:48.210Z,99.99
2018-08-09T06:27:48.297Z,99.99
2018-08-09T06:28:48.336Z,99.99
2018-08-09T06:29:48.471Z,99.99
2018-08-09T06:31:10.904Z,99.99
2018-08-09T06:32:11.964Z,99.99
2018-08-09T06:33:11.167Z,99.99
2018-08-09T06:34:11.540Z,99.99
2018-08-09T06:35:11.682Z,99.99
2018-08-09T06:36:34.016Z,99.99
2018-08-09T06:37:34.151Z,99.99
2018-08-09T06:38:56.584Z,99.99
2018-08-09T06:39:56.602Z,99.99
2018-08-09T06:42:01.745Z,99.99
2018-08-09T06:43:01.646Z,99.99
2018-08-09T06:44:02.027Z,99.99
2018-08-09T06:45:02.055Z,99.99
2018-08-09T06:46:02.099Z,99.99
2018-08-09T06:47:02.516Z,99.99
2018-08-09T06:48:23.992Z,99.99
2018-08-09T06:49:24.018Z,99.99
2018-08-09T06:50:24.429Z,99.99
2018-08-09T06:51:24.663Z,99.99
2018-08-09T06:52:24.411Z,99.99
2018-08-09T06:53:24.495Z,99.99
2018-08-09T06:54:24.237Z,99.99
2018-08-09T06:55:24.195Z,99.99
2018-08-09T06:56:24.540Z,99.99
2018-08-09T06:57:23.612Z,99.99
2018-08-09T06:58:47.855Z,99.99
2018-08-09T06:59:48.932Z,99.99
2018-08-09T07:00:48.601Z,99.99
2018-08-09T07:01:48.821Z,99.99
2018-08-09T07:02:48.221Z,99.99
2018-08-09T07:03:50.666Z,99.99
2018-08-09T07:04:48.513Z,99.99
2018-08-09T07:05:48.389Z,99.99
2018-08-09T07:06:48.226Z,99.99
2018-08-09T07:08:12.454Z,99.99
2018-08-09T07:09:12.219Z,99.99
2018-08-09T07:10:34.111Z,99.99
2018-08-09T07:11:35.353Z,99.99
2018-08-09T07:12:34.535Z,99.99
2018-08-09T07:13:34.800Z,99.99
2018-08-09T07:14:34.929Z,99.99
2018-08-09T07:15:58.556Z,99.99
2018-08-09T07:16:59.520Z,99.99
2018-08-09T07:17:58.638Z,99.99
2018-08-09T07:18:58.870Z,99.99
2018-08-09T07:19:59.043Z,99.99
2018-08-09T07:20:59.313Z,99.99
2018-08-09T07:21:59.141Z,99.99
2018-08-09T07:22:59.222Z,99.99
2018-08-09T07:23:59.430Z,99.99
2018-08-09T07:24:58.552Z,99.99
2018-08-09T07:25:59.519Z,99.99
2018-08-09T07:26:58.795Z,99.99
2018-08-09T07:28:20.448Z,99.99
2018-08-09T07:29:21.405Z,99.99
2018-08-09T07:30:21.493Z,99.99
2018-08-09T07:31:46.147Z,99.99
2018-08-09T07:32:49.318Z,99.98
2018-08-09T07:33:45.367Z,99.79
2018-08-09T07:34:46.155Z,99.02
2018-08-09T07:35:46.123Z,99.02
2018-08-09T07:36:46.320Z,98.49
2018-08-09T07:38:08.014Z,98.00
2018-08-09T07:39:09.803Z,96.80
2018-08-09T07:40:09.116Z,96.12
2018-08-09T07:41:11.404Z,94.28
2018-08-09T07:42:31.341Z,89.69
2018-08-09T07:43:53.772Z,88.23
2018-08-09T07:45:17.914Z,87.17
2018-08-09T07:46:18.328Z,87.27
2018-08-09T07:47:18.664Z,86.59
2018-08-09T07:48:17.793Z,87.13
2018-08-09T07:49:17.698Z,87.41
2018-08-09T07:50:17.996Z,88.19
2018-08-09T07:51:17.927Z,88.39
2018-08-09T07:52:17.724Z,88.39
2018-08-09T07:53:17.967Z,89.06
2018-08-09T07:54:18.042Z,89.15
2018-08-09T07:55:18.058Z,88.39
2018-08-09T07:56:18.165Z,89.83
2018-08-09T07:57:18.246Z,90.22
2018-08-09T07:58:18.260Z,90.51
2018-08-09T08:00:05.801Z,89.25
2018-08-09T08:01:07.040Z,89.35
2018-08-09T08:02:06.740Z,89.25
2018-08-09T08:03:06.072Z,88.57
2018-08-09T08:04:06.408Z,88.53
2018-08-09T08:05:06.297Z,89.79
2018-08-09T08:06:06.622Z,89.89
2018-08-09T08:07:06.401Z,90.17
2018-08-09T08:08:06.173Z,89.50
2018-08-09T08:09:06.033Z,88.34
2018-08-09T08:10:06.086Z,90.37
2018-08-09T08:11:06.187Z,89.11
2018-08-09T08:12:30.110Z,89.06
2018-08-09T08:13:31.078Z,88.77
2018-08-09T08:14:55.366Z,88.77
2018-08-09T08:15:55.540Z,87.23
2018-08-09T08:16:55.608Z,86.45
2018-08-09T08:17:55.644Z,86.93
2018-08-09T08:18:55.542Z,85.29
2018-08-09T08:19:55.824Z,84.22
2018-08-09T08:20:55.844Z,84.17
2018-08-09T08:21:55.736Z,83.11
2018-08-09T08:23:18.031Z,81.95
2018-08-09T08:24:18.105Z,81.85
2018-08-09T08:25:40.981Z,82.72
2018-08-09T08:26:41.460Z,81.85
2018-08-09T08:27:41.751Z,81.89
2018-08-09T08:29:03.834Z,81.79
2018-08-09T08:30:04.765Z,81.89
2018-08-09T08:31:04.582Z,80.92
2018-08-09T08:32:04.561Z,81.02
2018-08-09T08:33:28.294Z,81.05
2018-08-09T08:34:51.334Z,80.96
2018-08-09T08:36:16.342Z,79.02
2018-08-09T08:37:15.892Z,78.77
2018-08-09T08:38:17.714Z,78.97
2018-08-09T08:39:16.840Z,79.16
2018-08-09T08:40:16.890Z,79.06
2018-08-09T08:41:16.979Z,78.97
2018-08-09T08:42:40.959Z,79.16
2018-08-09T08:43:41.704Z,78.58
2018-08-09T08:44:41.744Z,78.19
2018-08-09T08:45:41.614Z,77.86
2018-08-09T08:46:42.972Z,78.44
2018-08-09T08:47:42.368Z,78.64
2018-08-09T08:48:41.745Z,79.50
2018-08-09T08:49:41.643Z,79.50
2018-08-09T08:50:41.518Z,79.41
2018-08-09T08:52:04.009Z,79.25
2018-08-09T08:53:04.440Z,78.71
2018-08-09T08:54:05.217Z,77.75
2018-08-09T08:55:04.188Z,77.20
2018-08-09T08:56:04.573Z,77.01
2018-08-09T08:57:26.557Z,76.52
2018-08-09T08:59:12.398Z,76.52
2018-08-09T09:00:13.295Z,77.39
2018-08-09T09:01:13.040Z,77.69
2018-08-09T09:02:15.851Z,78.23
2018-08-09T09:03:12.852Z,78.33
2018-08-09T09:04:36.460Z,79.45
2018-08-09T09:05:36.794Z,80.42
2018-08-09T09:06:37.478Z,81.35
2018-08-09T09:07:36.409Z,81.54
2018-08-09T09:08:37.669Z,81.73
2018-08-09T09:09:37.045Z,82.51
2018-08-09T09:11:01.318Z,83.28
2018-08-09T09:12:23.604Z,84.93
2018-08-09T09:13:23.823Z,84.55
2018-08-09T09:14:23.696Z,84.31
2018-08-09T09:15:23.665Z,84.21
2018-08-09T09:16:23.694Z,86.01
2018-08-09T09:17:24.796Z,86.69
2018-08-09T09:18:23.955Z,87.07
2018-08-09T09:19:24.094Z,86.78
2018-08-09T09:20:24.254Z,87.07
2018-08-09T09:21:24.044Z,87.36
2018-08-09T09:22:24.326Z,86.88
2018-08-09T09:23:24.148Z,87.17
2018-08-09T09:24:45.928Z,87.36
2018-08-09T09:25:46.809Z,87.70
2018-08-09T09:27:10.587Z,86.92
2018-08-09T09:28:10.862Z,86.82
2018-08-09T09:29:10.840Z,86.24
2018-08-09T09:30:10.931Z,85.86
2018-08-09T09:31:10.854Z,85.47
2018-08-09T09:32:34.875Z,85.57
2018-08-09T09:33:35.991Z,85.96
2018-08-09T09:35:21.320Z,86.73
2018-08-09T09:36:21.504Z,85.76
2018-08-09T09:38:07.073Z,85.28
2018-08-09T09:39:06.844Z,85.57
2018-08-09T09:40:07.735Z,84.93
2018-08-09T09:41:06.632Z,84.88
2018-08-09T09:42:07.468Z,81.43
2018-08-09T09:43:07.219Z,81.43
2018-08-09T09:44:06.980Z,79.82
2018-08-09T09:45:06.960Z,78.75
2018-08-09T09:46:06.952Z,78.25
2018-08-09T09:47:08.453Z,76.64
2018-08-09T09:48:31.348Z,74.92
2018-08-09T09:49:31.716Z,74.44
2018-08-09T09:50:33.064Z,73.02
2018-08-09T09:51:32.165Z,71.72
2018-08-09T09:52:31.419Z,70.78
2018-08-09T09:53:31.418Z,70.30
2018-08-09T09:54:31.256Z,69.52
2018-08-09T09:55:54.921Z,68.52
2018-08-09T09:56:54.886Z,67.38
2018-08-09T09:57:54.839Z,65.78
2018-08-09T09:58:54.892Z,64.65
2018-08-09T09:59:54.981Z,63.60
2018-08-09T10:00:55.344Z,62.85
2018-08-09T10:01:55.733Z,61.77
2018-08-09T10:02:55.908Z,62.16
2018-08-09T10:03:55.013Z,61.71
2018-08-09T10:05:20.614Z,61.29
2018-08-09T10:06:26.110Z,62.23
2018-08-09T10:07:19.231Z,63.09
2018-08-09T10:08:19.429Z,64.12
2018-08-09T10:09:43.239Z,65.66
2018-08-09T10:10:43.207Z,65.36
2018-08-09T10:11:43.476Z,65.17
2018-08-09T10:12:43.675Z,65.95
2018-08-09T10:13:43.712Z,65.72
2018-08-09T10:15:30.177Z,66.50
2018-08-09T10:16:30.277Z,66.05
2018-08-09T10:17:30.082Z,65.66
2018-08-09T10:18:29.949Z,65.62
2018-08-09T10:19:29.857Z,66.37
2018-08-09T10:20:53.743Z,66.50
2018-08-09T10:21:53.936Z,66.34
2018-08-09T10:22:54.145Z,65.00
2018-08-09T10:23:55.300Z,64.81
2018-08-09T10:24:54.433Z,65.75
2018-08-09T10:25:54.756Z,65.85
2018-08-09T10:26:54.189Z,65.69
2018-08-09T10:27:54.299Z,64.00
2018-08-09T10:28:54.943Z,62.76
2018-08-09T10:29:54.141Z,62.00
2018-08-09T10:30:54.249Z,61.25
2018-08-09T10:31:54.285Z,60.42
2018-08-09T10:32:54.510Z,59.74
2018-08-09T10:33:55.672Z,59.28
2018-08-09T10:34:53.487Z,58.69
2018-08-09T10:36:17.035Z,58.59
2018-08-09T10:37:17.115Z,58.59
2018-08-09T10:38:17.359Z,58.30
2018-08-09T10:39:17.342Z,58.96
2018-08-09T10:40:17.956Z,60.21
2018-08-09T10:41:16.884Z,60.08
2018-08-09T10:42:17.205Z,61.09
2018-08-09T10:43:42.036Z,62.82
2018-08-09T10:45:30.016Z,63.93
2018-08-09T10:46:30.949Z,64.68
2018-08-09T10:47:30.742Z,65.53
2018-08-09T10:48:33.159Z,66.41
2018-08-09T10:49:44.655Z,67.05
2018-08-09T10:50:55.919Z,67.12
2018-08-09T10:51:56.764Z,65.88
2018-08-09T10:52:56.043Z,64.29
2018-08-09T10:53:56.440Z,63.18
2018-08-09T10:54:55.535Z,62.82
2018-08-09T10:56:03.721Z,61.96
2018-08-09T10:56:55.908Z,60.36
2018-08-09T10:57:56.053Z,59.01
2018-08-09T10:58:57.816Z,58.16
2018-08-09T10:59:55.712Z,57.67
2018-08-09T11:00:56.087Z,57.74
2018-08-09T11:01:56.372Z,57.48
2018-08-09T11:03:19.375Z,57.60
2018-08-09T11:04:44.381Z,57.01
2018-08-09T11:05:44.618Z,56.88
2018-08-09T11:06:43.697Z,57.40
2018-08-09T11:08:07.574Z,57.28
2018-08-09T11:09:07.517Z,57.48
2018-08-09T11:10:08.010Z,57.11
2018-08-09T11:11:32.620Z,56.69
2018-08-09T11:12:33.318Z,57.28
2018-08-09T11:13:37.316Z,57.45
2018-08-09T11:14:57.463Z,58.06
2018-08-09T11:15:57.676Z,57.80
2018-08-09T11:16:57.791Z,56.58
2018-08-09T11:17:57.972Z,56.11
2018-08-09T11:18:58.030Z,54.93
2018-08-09T11:19:58.286Z,55.10
2018-08-09T11:20:57.411Z,54.83
2018-08-09T11:21:57.689Z,54.74
2018-08-09T11:22:58.574Z,54.44
2018-08-09T11:23:58.334Z,55.30
2018-08-09T11:25:02.144Z,55.26
2018-08-09T11:26:02.666Z,54.00
2018-08-09T11:27:01.684Z,53.81
2018-08-09T11:27:59.086Z,54.10
2018-08-09T11:28:57.927Z,53.39
2018-08-09T11:30:02.578Z,54.17
2018-08-09T11:30:57.716Z,53.58
2018-08-09T11:31:58.113Z,53.68
2018-08-09T11:32:58.060Z,53.81
2018-08-09T11:33:58.755Z,53.68
2018-08-09T11:34:57.840Z,53.49
2018-08-09T11:35:58.173Z,53.49
2018-08-09T11:36:58.190Z,53.68
2018-08-09T11:37:57.516Z,53.98
2018-08-09T11:38:57.789Z,54.10
2018-08-09T11:39:57.947Z,53.14
2018-08-09T11:40:59.582Z,52.28
2018-08-09T11:41:57.653Z,51.72
2018-08-09T11:42:58.307Z,51.45
2018-08-09T11:43:58.458Z,50.76
2018-08-09T11:44:58.487Z,50.90
2018-08-09T11:45:58.892Z,51.89
2018-08-09T11:46:58.940Z,51.67
2018-08-09T11:47:58.669Z,52.03
2018-08-09T11:48:57.943Z,52.62
2018-08-09T11:49:59.834Z,52.38
2018-08-09T11:51:00.293Z,52.11
2018-08-09T11:52:00.653Z,51.35
2018-08-09T11:52:59.930Z,50.66
2018-08-09T11:53:58.638Z,50.56
2018-08-09T11:54:58.303Z,51.00
2018-08-09T11:55:58.153Z,52.03
2018-08-09T11:56:58.151Z,52.70
2018-08-09T11:58:22.123Z,53.75
2018-08-09T11:59:22.886Z,53.92
2018-08-09T12:00:22.979Z,54.02
2018-08-09T12:01:44.880Z,54.46
2018-08-09T12:02:53.969Z,56.37
2018-08-09T12:03:46.640Z,56.76
2018-08-09T12:05:12.365Z,57.42
2018-08-09T12:06:44.988Z,58.54
2018-08-09T12:07:44.972Z,59.16
2018-08-09T12:08:45.018Z,58.89
2018-08-09T12:10:09.460Z,57.57
2018-08-09T12:11:33.324Z,56.94
2018-08-09T12:13:00.019Z,55.69
2018-08-09T12:14:23.031Z,55.47
2018-08-09T12:15:23.289Z,55.40
2018-08-09T12:16:24.128Z,55.60
2018-08-09T12:17:23.359Z,55.52
2018-08-09T12:18:24.781Z,55.13
2018-08-09T12:19:49.041Z,55.03
2018-08-09T12:21:36.096Z,55.60
2018-08-09T12:23:00.292Z,55.62
2018-08-09T12:24:00.846Z,54.93
2018-08-09T12:25:05.082Z,55.30
2018-08-09T12:26:28.170Z,55.62
2018-08-09T12:27:25.972Z,55.26
2018-08-09T12:28:25.006Z,55.16
2018-08-09T12:29:25.698Z,54.57
2018-08-09T12:30:25.088Z,54.76
2018-08-09T12:31:31.012Z,55.03
2018-08-09T12:32:57.963Z,55.82
2018-08-09T12:33:59.976Z,55.91
2018-08-09T12:34:58.057Z,55.75
2018-08-09T12:35:57.972Z,55.16
2018-08-09T12:36:58.047Z,55.62
2018-08-09T12:37:58.188Z,55.82
2018-08-09T12:38:58.332Z,55.94
2018-08-09T12:39:58.570Z,56.04
2018-08-09T12:40:58.731Z,56.04
2018-08-09T12:42:21.964Z,56.31
2018-08-09T12:43:23.033Z,57.03
2018-08-09T12:44:22.739Z,56.53
2018-08-09T12:45:24.527Z,56.43
2018-08-09T12:46:23.042Z,57.03
2018-08-09T12:47:23.989Z,57.03
2018-08-09T12:48:23.156Z,56.93
2018-08-09T12:49:22.105Z,56.85
2018-08-09T12:50:22.917Z,56.99
2018-08-09T12:51:23.378Z,58.51
2018-08-09T12:52:31.564Z,59.39
2018-08-09T12:53:29.348Z,59.23
2018-08-09T12:54:23.393Z,59.03
2018-08-09T12:55:22.334Z,58.91
2018-08-09T12:56:43.980Z,59.79
2018-08-09T12:57:45.009Z,59.33
2018-08-09T12:58:44.021Z,59.23
2018-08-09T12:59:45.164Z,58.86
2018-08-09T13:00:44.465Z,58.67
2018-08-09T13:02:06.338Z,59.26
2018-08-09T13:03:07.189Z,59.45
2018-08-09T13:04:22.387Z,59.36
2018-08-09T13:05:23.206Z,59.52
2018-08-09T13:06:22.960Z,59.55
2018-08-09T13:07:24.037Z,60.05
2018-08-09T13:08:46.521Z,60.58
2018-08-09T13:09:46.736Z,60.80
2018-08-09T13:10:46.932Z,60.31
2018-08-09T13:11:46.296Z,60.68
2018-08-09T13:13:10.495Z,61.23
2018-08-09T13:14:56.605Z,61.60
2018-08-09T13:15:58.747Z,61.89
2018-08-09T13:16:58.114Z,61.96
2018-08-09T13:17:57.312Z,63.07
2018-08-09T13:18:58.326Z,64.41
2018-08-09T13:19:57.508Z,64.97
2018-08-09T13:20:58.009Z,65.36
2018-08-09T13:21:57.216Z,65.72
2018-08-09T13:22:58.741Z,65.91
2018-08-09T13:23:57.416Z,66.20
2018-08-09T13:24:58.385Z,66.60
2018-08-09T13:25:57.413Z,66.60
2018-08-09T13:27:20.624Z,66.05
2018-08-09T13:28:45.536Z,66.14
2018-08-09T13:29:45.577Z,66.11
2018-08-09T13:30:47.398Z,66.11
2018-08-09T13:31:45.639Z,66.11
2018-08-09T13:33:08.424Z,66.76
2018-08-09T13:34:08.690Z,66.96
2018-08-09T13:35:08.713Z,67.51
2018-08-09T13:36:08.902Z,68.16
2018-08-09T13:37:09.556Z,68.85
2018-08-09T13:38:10.153Z,68.65
2018-08-09T13:39:09.468Z,68.85
2018-08-09T13:40:08.724Z,69.24
2018-08-09T13:41:09.861Z,68.95
2018-08-09T13:42:08.962Z,69.01
2018-08-09T13:43:08.959Z,69.30
2018-08-09T13:44:10.167Z,69.63
2018-08-09T13:45:08.107Z,69.30
2018-08-09T13:46:08.222Z,69.40
2018-08-09T13:47:08.642Z,69.40
2018-08-09T13:48:09.130Z,69.69
2018-08-09T13:49:08.436Z,69.95
2018-08-09T13:50:08.836Z,70.34
2018-08-09T13:51:09.452Z,70.60
2018-08-09T13:52:08.752Z,71.44
2018-08-09T13:53:09.434Z,72.12